Terminal Aerodrome Forecast
Issued by NWS

Home | Current Version | Previous Version | Text Only | Print | Product List | Glossary On
Versions: 1 2 3 4 5 6 7 8 9 10 11 12 13 14 15
000
FTUS46 KMTR 242300
TAFSTS
TAF
KSTS 242339Z 2500/2524 20010KT P6SM SCT035 SCT050
     FM250300 15005KT P6SM BKN050
     FM250700 15010KT P6SM OVC015
     FM251100 16011G20KT 2SM -RA BR BKN006
     FM251700 20014G21KT P6SM -RA OVC050=

USA.gov is the U.S. government's official web portal to all federal, state and local government web resources and services.